createdAt,value
2023-02-02T00:05:02.911Z,983.39
2023-02-02T00:10:34.441Z,983.54
2023-02-02T00:16:06.886Z,983.29
2023-02-02T00:21:37.754Z,983.56
2023-02-02T00:27:09.454Z,983.59
2023-02-02T00:32:41.169Z,983.79
2023-02-02T00:38:12.900Z,983.55
2023-02-02T00:43:51.230Z,983.22
2023-02-02T00:49:22.767Z,983.41
2023-02-02T00:54:54.550Z,983.47
2023-02-02T01:00:26.721Z,983.28
2023-02-02T01:05:58.290Z,983.33
2023-02-02T01:11:29.685Z,983.37
2023-02-02T01:17:01.535Z,983.15
2023-02-02T01:22:33.870Z,983.46
2023-02-02T01:28:05.383Z,983.49
2023-02-02T01:33:37.651Z,983.46
2023-02-02T01:39:08.473Z,983.33
2023-02-02T01:44:46.808Z,983.61
2023-02-02T01:50:18.352Z,983.7
2023-02-02T01:55:50.293Z,983.66
2023-02-02T02:01:21.814Z,983.7
2023-02-02T02:06:53.247Z,983.63
2023-02-02T02:12:28.073Z,983.91
2023-02-02T02:17:56.696Z,983.31
2023-02-02T02:23:28.631Z,983.7
2023-02-02T02:29:00.417Z,983.93
2023-02-02T02:34:31.949Z,983.88
2023-02-02T02:40:03.835Z,983.83
2023-02-02T02:45:42.117Z,983.64
2023-02-02T02:51:13.781Z,983.56
2023-02-02T02:56:45.281Z,983.66
2023-02-02T03:02:17.432Z,983.61
2023-02-02T03:07:48.826Z,983.91
2023-02-02T03:13:20.451Z,984.34
2023-02-02T03:18:52.588Z,983.66
2023-02-02T03:24:24.115Z,983.95
2023-02-02T03:29:55.646Z,983.8
2023-02-02T03:35:27.626Z,984.15
2023-02-02T03:40:59.955Z,984.03
2023-02-02T03:46:35.460Z,983.93
2023-02-02T03:52:07.156Z,984.13
2023-02-02T03:57:38.679Z,984.15
2023-02-02T04:03:10.738Z,984.12
2023-02-02T04:08:42.360Z,984.42
2023-02-02T04:14:13.830Z,984.67
2023-02-02T04:19:45.574Z,984.6
2023-02-02T04:25:17.271Z,984.54
2023-02-02T04:30:50.095Z,984.92
2023-02-02T04:36:20.977Z,985.04
2023-02-02T04:41:52.677Z,984.99
2023-02-02T04:47:28.656Z,985.03
2023-02-02T04:53:00.345Z,985.0
2023-02-02T04:58:32.005Z,985.07
2023-02-02T05:04:03.908Z,985.02
2023-02-02T05:09:35.413Z,985.35
2023-02-02T05:15:07.145Z,985.37
2023-02-02T05:20:39.075Z,985.33
2023-02-02T05:26:10.845Z,985.4
2023-02-02T05:31:42.677Z,985.8
2023-02-02T05:37:14.018Z,985.55
2023-02-02T05:42:46.006Z,985.69
2023-02-02T05:48:22.041Z,985.78
2023-02-02T05:53:53.828Z,985.61
2023-02-02T05:59:25.530Z,985.61
2023-02-02T06:04:57.261Z,985.35
2023-02-02T06:10:28.961Z,985.54
2023-02-02T06:16:00.826Z,985.62
2023-02-02T06:21:32.225Z,985.84
2023-02-02T06:27:04.049Z,985.72
2023-02-02T06:32:35.738Z,985.68
2023-02-02T06:38:08.102Z,985.86
2023-02-02T06:43:39.518Z,985.68
2023-02-02T06:49:17.621Z,985.92
2023-02-02T06:54:49.311Z,986.27
2023-02-02T07:00:21.784Z,986.19
2023-02-02T07:05:52.642Z,985.76
2023-02-02T07:11:24.617Z,986.1
2023-02-02T07:16:55.969Z,986.23
2023-02-02T07:22:27.662Z,986.13
2023-02-02T07:27:59.311Z,986.35
2023-02-02T07:33:31.337Z,986.1
2023-02-02T07:39:03.172Z,986.5
2023-02-02T07:44:34.605Z,986.35
2023-02-02T07:50:14.930Z,986.85
2023-02-02T07:55:47.437Z,986.59
2023-02-02T08:01:19.382Z,986.29
2023-02-02T08:06:50.894Z,986.71
2023-02-02T08:12:25.541Z,986.67
2023-02-02T08:17:54.719Z,987.01
2023-02-02T08:23:26.113Z,987.4
2023-02-02T08:28:57.824Z,987.74
2023-02-02T08:34:29.945Z,988.0
2023-02-02T08:40:01.722Z,987.8
2023-02-02T08:46:06.125Z,987.43
2023-02-02T08:51:11.361Z,987.63
2023-02-02T08:56:42.999Z,987.68
2023-02-02T09:02:14.958Z,987.3
2023-02-02T09:07:47.252Z,987.55
2023-02-02T09:13:17.963Z,987.65
2023-02-02T09:18:49.652Z,987.54
2023-02-02T09:24:21.712Z,987.83
2023-02-02T09:29:53.407Z,987.58
2023-02-02T09:35:26.329Z,987.93
2023-02-02T09:40:56.669Z,987.77
2023-02-02T09:46:28.963Z,987.92
2023-02-02T09:52:04.484Z,987.96
2023-02-02T09:57:36.464Z,987.43
2023-02-02T10:03:07.944Z,987.73
2023-02-02T10:08:40.559Z,987.65
2023-02-02T10:14:11.218Z,987.76
2023-02-02T10:19:43.369Z,988.13
2023-02-02T10:25:15.025Z,988.25
2023-02-02T10:30:47.114Z,988.38
2023-02-02T10:36:18.495Z,988.73
2023-02-02T10:41:50.389Z,988.35
2023-02-02T10:47:21.809Z,988.64
2023-02-02T10:52:58.253Z,988.29
2023-02-02T10:58:29.711Z,988.81
2023-02-02T11:04:01.846Z,988.87
2023-02-02T11:09:33.437Z,988.82
2023-02-02T11:15:05.095Z,988.86
2023-02-02T11:20:36.580Z,988.98
2023-02-02T11:26:09.017Z,988.88
2023-02-02T11:31:40.581Z,989.21
2023-02-02T11:37:11.963Z,988.88
2023-02-02T11:42:44.360Z,988.66
2023-02-02T11:48:15.673Z,988.61
2023-02-02T11:53:51.387Z,988.64
2023-02-02T11:59:23.587Z,988.4
2023-02-02T12:04:54.784Z,988.49
2023-02-02T12:10:27.883Z,988.48
2023-02-02T12:15:58.368Z,988.64
2023-02-02T12:21:29.923Z,988.41
2023-02-02T12:27:02.241Z,988.23
2023-02-02T12:32:33.537Z,988.07
2023-02-02T12:38:05.611Z,988.02
2023-02-02T12:43:36.933Z,988.04
2023-02-02T12:49:08.887Z,988.05
2023-02-02T12:54:57.419Z,988.08
2023-02-02T13:00:18.332Z,988.36
2023-02-02T13:05:50.210Z,988.43
2023-02-02T13:11:21.913Z,988.25
2023-02-02T13:16:53.999Z,988.4
2023-02-02T13:22:25.218Z,988.09
2023-02-02T13:27:57.036Z,988.42
2023-02-02T13:33:29.331Z,988.62
2023-02-02T13:39:00.911Z,988.73
2023-02-02T13:44:32.022Z,988.82
2023-02-02T13:50:03.945Z,989.03
2023-02-02T13:55:40.334Z,988.86
2023-02-02T14:01:12.222Z,989.13
2023-02-02T14:06:43.774Z,989.2
2023-02-02T14:12:15.596Z,989.08
2023-02-02T14:17:47.426Z,989.59
2023-02-02T14:23:18.718Z,989.88
2023-02-02T14:28:50.535Z,989.64
2023-02-02T14:34:22.366Z,989.58
2023-02-02T14:39:54.046Z,989.61
2023-02-02T14:45:26.561Z,989.48
2023-02-02T14:50:57.967Z,989.55
2023-02-02T14:56:33.420Z,989.72
2023-02-02T15:02:06.231Z,989.86
2023-02-02T15:07:37.562Z,989.7
2023-02-02T15:13:08.538Z,989.88
2023-02-02T15:18:40.356Z,990.35
2023-02-02T15:24:12.452Z,990.01
2023-02-02T15:29:43.998Z,990.35
2023-02-02T15:35:15.860Z,990.51
2023-02-02T15:40:47.555Z,990.57
2023-02-02T15:46:19.265Z,990.47
2023-02-02T15:51:50.861Z,990.4
2023-02-02T15:57:28.992Z,990.5
2023-02-02T16:03:00.411Z,990.33
2023-02-02T16:08:32.377Z,990.22
2023-02-02T16:14:05.320Z,990.74
2023-02-02T16:19:38.123Z,990.66
2023-02-02T16:25:09.766Z,990.57
2023-02-02T16:30:41.625Z,990.99
2023-02-02T16:36:26.308Z,991.2
2023-02-02T16:41:45.019Z,991.14
2023-02-02T16:47:17.213Z,991.21
2023-02-02T16:52:48.493Z,991.57
2023-02-02T16:58:24.672Z,991.56
2023-02-02T17:03:56.775Z,991.25
2023-02-02T17:09:27.979Z,991.63
2023-02-02T17:15:00.065Z,991.79
2023-02-02T17:20:31.798Z,991.2
2023-02-02T17:26:03.361Z,991.58
2023-02-02T17:31:35.821Z,991.46
2023-02-02T17:37:07.020Z,991.32
2023-02-02T17:42:38.706Z,991.22
2023-02-02T17:48:10.024Z,991.27
2023-02-02T17:53:42.507Z,991.11
2023-02-02T17:59:18.286Z,991.49
2023-02-02T18:04:49.749Z,991.33
2023-02-02T18:10:22.765Z,991.59
2023-02-02T18:15:54.154Z,991.32
2023-02-02T18:21:25.268Z,991.49
2023-02-02T18:26:57.121Z,991.24
2023-02-02T18:32:28.955Z,991.22
2023-02-02T18:38:00.132Z,990.87
2023-02-02T18:43:31.881Z,991.12
2023-02-02T18:49:03.443Z,991.34
2023-02-02T18:54:36.062Z,991.27
2023-02-02T19:00:12.577Z,991.54
2023-02-02T19:05:43.514Z,991.58
2023-02-02T19:11:15.204Z,991.51
2023-02-02T19:16:46.804Z,991.56
2023-02-02T19:22:18.575Z,991.82
2023-02-02T19:27:50.450Z,992.0
2023-02-02T19:33:21.961Z,992.14
2023-02-02T19:38:54.048Z,992.17
2023-02-02T19:44:26.088Z,991.71
2023-02-02T19:49:57.079Z,992.12
2023-02-02T19:55:28.650Z,992.36
2023-02-02T20:01:05.499Z,992.03
2023-02-02T20:06:59.904Z,991.91
2023-02-02T20:12:08.167Z,992.0
2023-02-02T20:17:40.057Z,992.29
2023-02-02T20:23:11.951Z,992.18
2023-02-02T20:28:43.256Z,991.77
2023-02-02T20:34:15.598Z,991.86
2023-02-02T20:39:46.855Z,991.51
2023-02-02T20:45:18.904Z,991.46
2023-02-02T20:50:50.584Z,991.4
2023-02-02T20:56:22.026Z,991.72
2023-02-02T21:01:58.509Z,991.78
2023-02-02T21:07:30.162Z,991.57
2023-02-02T21:13:02.044Z,991.75
2023-02-02T21:18:33.822Z,991.44
2023-02-02T21:24:06.724Z,991.95
2023-02-02T21:29:38.318Z,991.62
2023-02-02T21:35:08.628Z,991.78
2023-02-02T21:40:40.407Z,991.49
2023-02-02T21:46:12.638Z,991.98
2023-02-02T21:51:44.609Z,992.23
2023-02-02T21:57:15.374Z,992.05
2023-02-02T22:02:52.336Z,991.75
2023-02-02T22:08:23.669Z,991.92
2023-02-02T22:13:55.420Z,991.99
2023-02-02T22:19:27.308Z,991.69
2023-02-02T22:24:58.457Z,992.11
2023-02-02T22:30:31.868Z,991.6
2023-02-02T22:36:01.979Z,991.52
2023-02-02T22:41:33.536Z,991.33
2023-02-02T22:47:05.166Z,991.73
2023-02-02T22:52:37.914Z,991.49
2023-02-02T22:58:09.136Z,991.87
2023-02-02T23:03:44.883Z,991.95
2023-02-02T23:09:16.572Z,991.88
2023-02-02T23:14:49.069Z,992.02
2023-02-02T23:20:20.334Z,991.81
2023-02-02T23:25:51.811Z,991.86
2023-02-02T23:31:23.996Z,991.91
2023-02-02T23:36:55.564Z,991.95
2023-02-02T23:42:27.352Z,992.16
2023-02-02T23:47:58.970Z,992.04
2023-02-02T23:53:30.377Z,992.09
2023-02-02T23:59:03.021Z,992.2
